sensor_id;sensor_type;location;lat;lon;timestamp;P1;durP1;ratioP1;P2;durP2;ratioP2
51122;SDS011;37162;41.724;13.346;2023-09-07T00:00:09;3.60;;;3.17;;
51122;SDS011;37162;41.724;13.346;2023-09-07T00:02:35;3.60;;;3.28;;
51122;SDS011;37162;41.724;13.346;2023-09-07T00:05:01;6.63;;;3.20;;
51122;SDS011;37162;41.724;13.346;2023-09-07T00:07:27;5.05;;;3.17;;
51122;SDS011;37162;41.724;13.346;2023-09-07T00:09:52;3.13;;;2.80;;
51122;SDS011;37162;41.724;13.346;2023-09-07T00:12:17;3.22;;;2.92;;
51122;SDS011;37162;41.724;13.346;2023-09-07T00:14:43;2.60;;;2.40;;
51122;SDS011;37162;41.724;13.346;2023-09-07T00:17:08;3.55;;;2.97;;
51122;SDS011;37162;41.724;13.346;2023-09-07T00:19:33;4.93;;;3.10;;
51122;SDS011;37162;41.724;13.346;2023-09-07T00:22:01;4.15;;;2.80;;
51122;SDS011;37162;41.724;13.346;2023-09-07T00:24:28;3.55;;;3.13;;
51122;SDS011;37162;41.724;13.346;2023-09-07T00:26:53;3.40;;;3.00;;
51122;SDS011;37162;41.724;13.346;2023-09-07T00:29:19;5.28;;;2.72;;
51122;SDS011;37162;41.724;13.346;2023-09-07T00:31:44;3.15;;;2.85;;
51122;SDS011;37162;41.724;13.346;2023-09-07T00:34:09;3.00;;;2.70;;
51122;SDS011;37162;41.724;13.346;2023-09-07T00:36:35;3.42;;;3.00;;
51122;SDS011;37162;41.724;13.346;2023-09-07T00:39:01;3.20;;;2.90;;
51122;SDS011;37162;41.724;13.346;2023-09-07T00:41:27;3.55;;;2.90;;
51122;SDS011;37162;41.724;13.346;2023-09-07T00:43:53;3.22;;;2.92;;
51122;SDS011;37162;41.724;13.346;2023-09-07T00:46:18;3.45;;;3.15;;
51122;SDS011;37162;41.724;13.346;2023-09-07T00:48:43;3.55;;;2.85;;
51122;SDS011;37162;41.724;13.346;2023-09-07T00:51:09;3.58;;;3.10;;
51122;SDS011;37162;41.724;13.346;2023-09-07T00:53:34;3.33;;;2.78;;
51122;SDS011;37162;41.724;13.346;2023-09-07T00:56:01;3.20;;;2.75;;
51122;SDS011;37162;41.724;13.346;2023-09-07T00:58:27;3.35;;;2.72;;
51122;SDS011;37162;41.724;13.346;2023-09-07T01:00:53;3.33;;;2.95;;
51122;SDS011;37162;41.724;13.346;2023-09-07T01:03:19;3.50;;;2.85;;
51122;SDS011;37162;41.724;13.346;2023-09-07T01:05:56;2.80;;;2.60;;
51122;SDS011;37162;41.724;13.346;2023-09-07T01:08:29;6.18;;;3.00;;
51122;SDS011;37162;41.724;13.346;2023-09-07T01:11:00;2.50;;;2.30;;
51122;SDS011;37162;41.724;13.346;2023-09-07T01:13:26;5.40;;;2.47;;
51122;SDS011;37162;41.724;13.346;2023-09-07T01:15:51;2.88;;;2.67;;
51122;SDS011;37162;41.724;13.346;2023-09-07T01:18:17;4.47;;;2.50;;
51122;SDS011;37162;41.724;13.346;2023-09-07T01:20:44;3.35;;;2.80;;
51122;SDS011;37162;41.724;13.346;2023-09-07T01:23:10;2.78;;;2.55;;
51122;SDS011;37162;41.724;13.346;2023-09-07T01:25:38;4.35;;;2.63;;
51122;SDS011;37162;41.724;13.346;2023-09-07T01:28:05;2.83;;;2.40;;
51122;SDS011;37162;41.724;13.346;2023-09-07T01:30:31;2.60;;;2.40;;
51122;SDS011;37162;41.724;13.346;2023-09-07T01:32:59;2.58;;;2.38;;
51122;SDS011;37162;41.724;13.346;2023-09-07T01:35:25;2.60;;;2.40;;
51122;SDS011;37162;41.724;13.346;2023-09-07T01:37:51;2.25;;;2.05;;
51122;SDS011;37162;41.724;13.346;2023-09-07T01:40:17;3.00;;;2.50;;
51122;SDS011;37162;41.724;13.346;2023-09-07T01:42:42;3.53;;;2.63;;
51122;SDS011;37162;41.724;13.346;2023-09-07T01:45:08;2.78;;;2.53;;
51122;SDS011;37162;41.724;13.346;2023-09-07T01:47:33;2.63;;;2.42;;
51122;SDS011;37162;41.724;13.346;2023-09-07T01:49:59;2.83;;;2.30;;
51122;SDS011;37162;41.724;13.346;2023-09-07T01:52:24;6.00;;;2.60;;
51122;SDS011;37162;41.724;13.346;2023-09-07T01:54:50;3.90;;;2.40;;
51122;SDS011;37162;41.724;13.346;2023-09-07T01:57:15;2.30;;;2.10;;
51122;SDS011;37162;41.724;13.346;2023-09-07T01:59:41;3.28;;;2.80;;
51122;SDS011;37162;41.724;13.346;2023-09-07T02:02:06;6.40;;;2.78;;
51122;SDS011;37162;41.724;13.346;2023-09-07T02:04:31;13.98;;;2.70;;
51122;SDS011;37162;41.724;13.346;2023-09-07T02:06:57;2.85;;;2.65;;
51122;SDS011;37162;41.724;13.346;2023-09-07T02:09:22;3.30;;;2.63;;
51122;SDS011;37162;41.724;13.346;2023-09-07T02:11:48;3.92;;;2.50;;
51122;SDS011;37162;41.724;13.346;2023-09-07T02:14:13;2.92;;;2.50;;
51122;SDS011;37162;41.724;13.346;2023-09-07T02:16:38;3.42;;;2.10;;
51122;SDS011;37162;41.724;13.346;2023-09-07T02:19:04;3.10;;;2.47;;
51122;SDS011;37162;41.724;13.346;2023-09-07T02:21:31;3.00;;;2.70;;
51122;SDS011;37162;41.724;13.346;2023-09-07T02:23:57;3.20;;;2.50;;
51122;SDS011;37162;41.724;13.346;2023-09-07T02:26:23;2.42;;;2.22;;
51122;SDS011;37162;41.724;13.346;2023-09-07T02:28:49;2.63;;;2.42;;
51122;SDS011;37162;41.724;13.346;2023-09-07T02:31:14;3.13;;;2.83;;
51122;SDS011;37162;41.724;13.346;2023-09-07T02:33:39;3.55;;;2.72;;
51122;SDS011;37162;41.724;13.346;2023-09-07T02:36:05;2.65;;;2.45;;
51122;SDS011;37162;41.724;13.346;2023-09-07T02:38:30;2.78;;;2.58;;
51122;SDS011;37162;41.724;13.346;2023-09-07T02:40:57;2.55;;;2.35;;
51122;SDS011;37162;41.724;13.346;2023-09-07T02:43:22;4.45;;;2.85;;
51122;SDS011;37162;41.724;13.346;2023-09-07T02:45:48;3.28;;;2.40;;
51122;SDS011;37162;41.724;13.346;2023-09-07T02:48:15;2.60;;;2.40;;
51122;SDS011;37162;41.724;13.346;2023-09-07T02:50:41;2.58;;;2.38;;
51122;SDS011;37162;41.724;13.346;2023-09-07T02:53:07;2.78;;;2.58;;
51122;SDS011;37162;41.724;13.346;2023-09-07T02:55:33;2.65;;;2.45;;
51122;SDS011;37162;41.724;13.346;2023-09-07T02:58:02;2.85;;;2.60;;
51122;SDS011;37162;41.724;13.346;2023-09-07T03:00:27;3.30;;;2.88;;
51122;SDS011;37162;41.724;13.346;2023-09-07T03:02:53;3.03;;;2.72;;
51122;SDS011;37162;41.724;13.346;2023-09-07T03:05:18;3.85;;;2.55;;
51122;SDS011;37162;41.724;13.346;2023-09-07T03:07:44;2.67;;;2.30;;
51122;SDS011;37162;41.724;13.346;2023-09-07T03:10:10;2.95;;;2.75;;
51122;SDS011;37162;41.724;13.346;2023-09-07T03:12:36;2.85;;;2.58;;
51122;SDS011;37162;41.724;13.346;2023-09-07T03:15:02;2.80;;;2.60;;
51122;SDS011;37162;41.724;13.346;2023-09-07T03:17:28;2.33;;;2.13;;
51122;SDS011;37162;41.724;13.346;2023-09-07T03:19:54;2.58;;;2.38;;
51122;SDS011;37162;41.724;13.346;2023-09-07T03:22:20;2.88;;;2.58;;
51122;SDS011;37162;41.724;13.346;2023-09-07T03:24:45;2.13;;;1.98;;
51122;SDS011;37162;41.724;13.346;2023-09-07T03:27:10;2.75;;;2.55;;
51122;SDS011;37162;41.724;13.346;2023-09-07T03:29:36;2.75;;;2.08;;
51122;SDS011;37162;41.724;13.346;2023-09-07T03:32:02;3.10;;;2.63;;
51122;SDS011;37162;41.724;13.346;2023-09-07T03:34:27;3.50;;;2.67;;
51122;SDS011;37162;41.724;13.346;2023-09-07T03:36:53;3.10;;;2.60;;
51122;SDS011;37162;41.724;13.346;2023-09-07T03:39:18;2.92;;;2.60;;
51122;SDS011;37162;41.724;13.346;2023-09-07T03:41:46;2.75;;;2.55;;
51122;SDS011;37162;41.724;13.346;2023-09-07T03:44:11;2.90;;;2.70;;
51122;SDS011;37162;41.724;13.346;2023-09-07T03:46:37;3.33;;;3.03;;
51122;SDS011;37162;41.724;13.346;2023-09-07T03:49:02;6.43;;;2.70;;
51122;SDS011;37162;41.724;13.346;2023-09-07T03:51:28;2.75;;;2.55;;
51122;SDS011;37162;41.724;13.346;2023-09-07T03:53:53;4.05;;;3.33;;
51122;SDS011;37162;41.724;13.346;2023-09-07T03:56:19;4.32;;;2.80;;
51122;SDS011;37162;41.724;13.346;2023-09-07T03:58:44;3.35;;;3.03;;
51122;SDS011;37162;41.724;13.346;2023-09-07T04:01:12;4.43;;;2.95;;
51122;SDS011;37162;41.724;13.346;2023-09-07T04:03:38;3.80;;;2.85;;
51122;SDS011;37162;41.724;13.346;2023-09-07T04:06:05;2.70;;;2.25;;
51122;SDS011;37162;41.724;13.346;2023-09-07T04:08:30;3.75;;;2.80;;
51122;SDS011;37162;41.724;13.346;2023-09-07T04:10:56;3.22;;;2.92;;
51122;SDS011;37162;41.724;13.346;2023-09-07T04:13:21;5.28;;;3.30;;
51122;SDS011;37162;41.724;13.346;2023-09-07T04:15:47;3.08;;;2.78;;
51122;SDS011;37162;41.724;13.346;2023-09-07T04:18:12;3.10;;;2.67;;
51122;SDS011;37162;41.724;13.346;2023-09-07T04:20:43;3.05;;;2.75;;
51122;SDS011;37162;41.724;13.346;2023-09-07T04:23:08;32.90;;;4.30;;
51122;SDS011;37162;41.724;13.346;2023-09-07T04:25:34;3.72;;;2.53;;
51122;SDS011;37162;41.724;13.346;2023-09-07T04:27:59;4.85;;;2.70;;
51122;SDS011;37162;41.724;13.346;2023-09-07T04:30:25;2.78;;;2.58;;
51122;SDS011;37162;41.724;13.346;2023-09-07T04:32:50;3.90;;;3.40;;
51122;SDS011;37162;41.724;13.346;2023-09-07T04:35:16;3.00;;;2.70;;
51122;SDS011;37162;41.724;13.346;2023-09-07T04:37:42;4.15;;;3.40;;
51122;SDS011;37162;41.724;13.346;2023-09-07T04:40:08;7.88;;;2.78;;
51122;SDS011;37162;41.724;13.346;2023-09-07T04:42:34;3.65;;;3.03;;
51122;SDS011;37162;41.724;13.346;2023-09-07T04:44:59;6.90;;;3.33;;
51122;SDS011;37162;41.724;13.346;2023-09-07T04:47:25;4.57;;;3.30;;
51122;SDS011;37162;41.724;13.346;2023-09-07T04:49:50;3.55;;;2.92;;
51122;SDS011;37162;41.724;13.346;2023-09-07T04:52:16;5.80;;;3.30;;
51122;SDS011;37162;41.724;13.346;2023-09-07T04:54:42;4.45;;;2.95;;
51122;SDS011;37162;41.724;13.346;2023-09-07T04:57:08;4.53;;;3.22;;
51122;SDS011;37162;41.724;13.346;2023-09-07T04:59:33;5.18;;;3.00;;
51122;SDS011;37162;41.724;13.346;2023-09-07T05:01:59;8.35;;;3.20;;
51122;SDS011;37162;41.724;13.346;2023-09-07T05:04:26;3.83;;;3.17;;
51122;SDS011;37162;41.724;13.346;2023-09-07T05:06:52;3.47;;;2.60;;
51122;SDS011;37162;41.724;13.346;2023-09-07T05:09:18;3.67;;;2.88;;
51122;SDS011;37162;41.724;13.346;2023-09-07T05:11:45;3.13;;;2.83;;
51122;SDS011;37162;41.724;13.346;2023-09-07T05:14:10;3.15;;;2.53;;
51122;SDS011;37162;41.724;13.346;2023-09-07T05:16:36;4.07;;;2.95;;
51122;SDS011;37162;41.724;13.346;2023-09-07T05:19:01;4.13;;;3.08;;
51122;SDS011;37162;41.724;13.346;2023-09-07T05:21:27;6.35;;;2.90;;
51122;SDS011;37162;41.724;13.346;2023-09-07T05:23:52;4.35;;;3.33;;
51122;SDS011;37162;41.724;13.346;2023-09-07T05:26:21;3.50;;;3.10;;
51122;SDS011;37162;41.724;13.346;2023-09-07T05:28:49;5.00;;;2.95;;
51122;SDS011;37162;41.724;13.346;2023-09-07T05:31:15;4.13;;;2.85;;
51122;SDS011;37162;41.724;13.346;2023-09-07T05:33:40;3.45;;;3.00;;
51122;SDS011;37162;41.724;13.346;2023-09-07T05:36:06;4.50;;;3.20;;
51122;SDS011;37162;41.724;13.346;2023-09-07T05:38:31;6.97;;;3.25;;
51122;SDS011;37162;41.724;13.346;2023-09-07T05:40:57;5.07;;;2.88;;
51122;SDS011;37162;41.724;13.346;2023-09-07T05:43:22;3.63;;;2.95;;
51122;SDS011;37162;41.724;13.346;2023-09-07T05:45:48;4.13;;;3.28;;
51122;SDS011;37162;41.724;13.346;2023-09-07T05:48:13;7.53;;;3.63;;
51122;SDS011;37162;41.724;13.346;2023-09-07T05:50:41;3.90;;;3.03;;
51122;SDS011;37162;41.724;13.346;2023-09-07T05:53:07;4.93;;;3.45;;
51122;SDS011;37162;41.724;13.346;2023-09-07T05:55:33;10.45;;;3.30;;
51122;SDS011;37162;41.724;13.346;2023-09-07T05:57:58;8.70;;;4.40;;
51122;SDS011;37162;41.724;13.346;2023-09-07T06:00:24;8.65;;;4.70;;
51122;SDS011;37162;41.724;13.346;2023-09-07T06:02:50;9.77;;;5.15;;
51122;SDS011;37162;41.724;13.346;2023-09-07T06:05:16;11.80;;;6.15;;
51122;SDS011;37162;41.724;13.346;2023-09-07T06:07:43;8.32;;;4.50;;
51122;SDS011;37162;41.724;13.346;2023-09-07T06:10:09;11.98;;;4.82;;
51122;SDS011;37162;41.724;13.346;2023-09-07T06:12:35;9.18;;;4.57;;
51122;SDS011;37162;41.724;13.346;2023-09-07T06:15:00;10.23;;;4.63;;
51122;SDS011;37162;41.724;13.346;2023-09-07T06:17:27;5.15;;;3.97;;
51122;SDS011;37162;41.724;13.346;2023-09-07T06:19:53;9.60;;;3.67;;
51122;SDS011;37162;41.724;13.346;2023-09-07T06:22:19;8.75;;;4.05;;
51122;SDS011;37162;41.724;13.346;2023-09-07T06:24:44;7.43;;;4.07;;
51122;SDS011;37162;41.724;13.346;2023-09-07T06:27:09;6.20;;;3.60;;
51122;SDS011;37162;41.724;13.346;2023-09-07T06:29:35;7.85;;;3.63;;
51122;SDS011;37162;41.724;13.346;2023-09-07T06:32:00;6.57;;;3.50;;
51122;SDS011;37162;41.724;13.346;2023-09-07T06:34:26;7.13;;;3.80;;
51122;SDS011;37162;41.724;13.346;2023-09-07T06:36:51;5.03;;;3.83;;
51122;SDS011;37162;41.724;13.346;2023-09-07T06:39:17;4.65;;;3.47;;
51122;SDS011;37162;41.724;13.346;2023-09-07T06:41:45;5.63;;;3.22;;
51122;SDS011;37162;41.724;13.346;2023-09-07T06:44:11;4.97;;;3.25;;
51122;SDS011;37162;41.724;13.346;2023-09-07T06:46:36;4.80;;;3.08;;
51122;SDS011;37162;41.724;13.346;2023-09-07T06:49:02;5.88;;;3.05;;
51122;SDS011;37162;41.724;13.346;2023-09-07T06:51:28;6.90;;;3.25;;
51122;SDS011;37162;41.724;13.346;2023-09-07T06:53:55;5.70;;;3.17;;
51122;SDS011;37162;41.724;13.346;2023-09-07T06:56:20;3.25;;;2.80;;
51122;SDS011;37162;41.724;13.346;2023-09-07T06:58:46;5.00;;;3.25;;
51122;SDS011;37162;41.724;13.346;2023-09-07T07:01:11;3.88;;;3.20;;
51122;SDS011;37162;41.724;13.346;2023-09-07T07:03:36;4.88;;;3.45;;
51122;SDS011;37162;41.724;13.346;2023-09-07T07:06:02;6.15;;;3.08;;
51122;SDS011;37162;41.724;13.346;2023-09-07T07:08:27;3.35;;;3.05;;
51122;SDS011;37162;41.724;13.346;2023-09-07T07:10:53;3.85;;;3.22;;
51122;SDS011;37162;41.724;13.346;2023-09-07T07:13:18;5.28;;;2.95;;
51122;SDS011;37162;41.724;13.346;2023-09-07T07:15:44;3.60;;;2.80;;
51122;SDS011;37162;41.724;13.346;2023-09-07T07:18:10;5.20;;;3.83;;
51122;SDS011;37162;41.724;13.346;2023-09-07T07:20:39;4.07;;;2.90;;
51122;SDS011;37162;41.724;13.346;2023-09-07T07:23:05;3.25;;;2.83;;
51122;SDS011;37162;41.724;13.346;2023-09-07T07:25:34;4.38;;;3.60;;
51122;SDS011;37162;41.724;13.346;2023-09-07T07:28:00;4.90;;;2.70;;
51122;SDS011;37162;41.724;13.346;2023-09-07T07:30:29;4.13;;;2.97;;
51122;SDS011;37162;41.724;13.346;2023-09-07T07:32:55;5.25;;;3.42;;
51122;SDS011;37162;41.724;13.346;2023-09-07T07:35:21;5.97;;;3.53;;
51122;SDS011;37162;41.724;13.346;2023-09-07T07:37:48;4.70;;;2.97;;
51122;SDS011;37162;41.724;13.346;2023-09-07T07:40:14;4.88;;;3.05;;
51122;SDS011;37162;41.724;13.346;2023-09-07T07:42:40;6.30;;;3.10;;
51122;SDS011;37162;41.724;13.346;2023-09-07T07:45:05;3.25;;;2.88;;
51122;SDS011;37162;41.724;13.346;2023-09-07T07:47:31;8.52;;;3.30;;
51122;SDS011;37162;41.724;13.346;2023-09-07T07:49:57;2.90;;;2.70;;
51122;SDS011;37162;41.724;13.346;2023-09-07T07:52:22;3.85;;;3.20;;
51122;SDS011;37162;41.724;13.346;2023-09-07T07:54:47;4.57;;;2.97;;
51122;SDS011;37162;41.724;13.346;2023-09-07T07:57:13;4.18;;;3.03;;
51122;SDS011;37162;41.724;13.346;2023-09-07T07:59:38;3.33;;;3.03;;
51122;SDS011;37162;41.724;13.346;2023-09-07T08:02:04;4.35;;;2.95;;
51122;SDS011;37162;41.724;13.346;2023-09-07T08:04:31;4.13;;;2.78;;
51122;SDS011;37162;41.724;13.346;2023-09-07T08:06:57;5.93;;;3.22;;
51122;SDS011;37162;41.724;13.346;2023-09-07T08:09:28;4.60;;;3.20;;
51122;SDS011;37162;41.724;13.346;2023-09-07T08:11:54;3.40;;;3.05;;
51122;SDS011;37162;41.724;13.346;2023-09-07T08:14:21;3.40;;;2.65;;
51122;SDS011;37162;41.724;13.346;2023-09-07T08:16:47;4.30;;;2.75;;
51122;SDS011;37162;41.724;13.346;2023-09-07T08:19:13;5.03;;;2.83;;
51122;SDS011;37162;41.724;13.346;2023-09-07T08:21:39;6.53;;;3.20;;
51122;SDS011;37162;41.724;13.346;2023-09-07T08:24:07;6.35;;;3.20;;
51122;SDS011;37162;41.724;13.346;2023-09-07T08:26:35;3.15;;;2.85;;
51122;SDS011;37162;41.724;13.346;2023-09-07T08:29:01;6.57;;;3.42;;
51122;SDS011;37162;41.724;13.346;2023-09-07T08:31:39;5.28;;;3.15;;
51122;SDS011;37162;41.724;13.346;2023-09-07T08:34:06;4.45;;;3.33;;
51122;SDS011;37162;41.724;13.346;2023-09-07T08:36:34;4.22;;;3.42;;
51122;SDS011;37162;41.724;13.346;2023-09-07T08:39:09;3.85;;;3.30;;
51122;SDS011;37162;41.724;13.346;2023-09-07T08:41:38;6.57;;;3.50;;
51122;SDS011;37162;41.724;13.346;2023-09-07T08:44:11;4.97;;;3.85;;
51122;SDS011;37162;41.724;13.346;2023-09-07T08:46:40;8.00;;;3.17;;
51122;SDS011;37162;41.724;13.346;2023-09-07T08:49:06;3.63;;;3.22;;
51122;SDS011;37162;41.724;13.346;2023-09-07T08:51:31;3.92;;;3.45;;
51122;SDS011;37162;41.724;13.346;2023-09-07T08:53:57;4.32;;;3.30;;
51122;SDS011;37162;41.724;13.346;2023-09-07T08:56:23;6.57;;;3.38;;
51122;SDS011;37162;41.724;13.346;2023-09-07T08:58:49;5.88;;;3.22;;
51122;SDS011;37162;41.724;13.346;2023-09-07T09:01:15;3.50;;;3.17;;
51122;SDS011;37162;41.724;13.346;2023-09-07T09:03:45;4.63;;;3.20;;
51122;SDS011;37162;41.724;13.346;2023-09-07T09:06:11;5.53;;;3.28;;
51122;SDS011;37162;41.724;13.346;2023-09-07T09:08:49;5.07;;;3.60;;
51122;SDS011;37162;41.724;13.346;2023-09-07T09:11:15;5.40;;;3.40;;
51122;SDS011;37162;41.724;13.346;2023-09-07T09:13:42;5.13;;;3.20;;
51122;SDS011;37162;41.724;13.346;2023-09-07T09:16:08;3.30;;;3.00;;
51122;SDS011;37162;41.724;13.346;2023-09-07T09:18:35;4.15;;;3.38;;
51122;SDS011;37162;41.724;13.346;2023-09-07T09:21:00;4.25;;;3.22;;
51122;SDS011;37162;41.724;13.346;2023-09-07T09:23:32;6.38;;;3.08;;
51122;SDS011;37162;41.724;13.346;2023-09-07T09:25:59;3.42;;;2.90;;
51122;SDS011;37162;41.724;13.346;2023-09-07T09:28:26;4.75;;;3.08;;
51122;SDS011;37162;41.724;13.346;2023-09-07T09:30:52;4.22;;;3.33;;
51122;SDS011;37162;41.724;13.346;2023-09-07T09:33:21;5.80;;;3.45;;
51122;SDS011;37162;41.724;13.346;2023-09-07T09:35:47;3.10;;;2.80;;
51122;SDS011;37162;41.724;13.346;2023-09-07T09:38:13;3.35;;;3.05;;
51122;SDS011;37162;41.724;13.346;2023-09-07T09:40:39;3.47;;;3.10;;
51122;SDS011;37162;41.724;13.346;2023-09-07T09:43:05;4.93;;;3.30;;
51122;SDS011;37162;41.724;13.346;2023-09-07T09:45:30;3.88;;;3.00;;
51122;SDS011;37162;41.724;13.346;2023-09-07T09:47:56;3.72;;;2.90;;
51122;SDS011;37162;41.724;13.346;2023-09-07T09:50:25;4.30;;;2.90;;
51122;SDS011;37162;41.724;13.346;2023-09-07T09:52:51;3.60;;;2.53;;
51122;SDS011;37162;41.724;13.346;2023-09-07T09:55:18;3.42;;;2.90;;
51122;SDS011;37162;41.724;13.346;2023-09-07T09:57:44;4.95;;;3.22;;
51122;SDS011;37162;41.724;13.346;2023-09-07T10:00:09;3.40;;;3.08;;
51122;SDS011;37162;41.724;13.346;2023-09-07T10:03:05;4.55;;;2.72;;
51122;SDS011;37162;41.724;13.346;2023-09-07T10:05:38;3.63;;;2.58;;
51122;SDS011;37162;41.724;13.346;2023-09-07T10:08:08;2.95;;;2.65;;
51122;SDS011;37162;41.724;13.346;2023-09-07T10:10:36;3.28;;;2.83;;
51122;SDS011;37162;41.724;13.346;2023-09-07T10:13:02;5.97;;;3.22;;
51122;SDS011;37162;41.724;13.346;2023-09-07T10:15:29;5.72;;;3.22;;
51122;SDS011;37162;41.724;13.346;2023-09-07T10:18:14;4.05;;;2.70;;
51122;SDS011;37162;41.724;13.346;2023-09-07T10:20:51;6.07;;;3.50;;
51122;SDS011;37162;41.724;13.346;2023-09-07T10:23:19;3.38;;;3.08;;
51122;SDS011;37162;41.724;13.346;2023-09-07T10:25:52;3.28;;;2.78;;
51122;SDS011;37162;41.724;13.346;2023-09-07T10:28:22;3.67;;;3.25;;
51122;SDS011;37162;41.724;13.346;2023-09-07T10:30:58;4.63;;;2.80;;
51122;SDS011;37162;41.724;13.346;2023-09-07T10:33:26;3.20;;;2.80;;
51122;SDS011;37162;41.724;13.346;2023-09-07T10:35:52;3.83;;;3.20;;
51122;SDS011;37162;41.724;13.346;2023-09-07T10:38:17;3.90;;;3.03;;
51122;SDS011;37162;41.724;13.346;2023-09-07T10:40:43;3.90;;;2.78;;
51122;SDS011;37162;41.724;13.346;2023-09-07T10:43:10;9.95;;;2.97;;
51122;SDS011;37162;41.724;13.346;2023-09-07T10:45:36;5.20;;;3.30;;
51122;SDS011;37162;41.724;13.346;2023-09-07T10:48:02;3.35;;;3.00;;
51122;SDS011;37162;41.724;13.346;2023-09-07T10:50:29;8.48;;;3.10;;
51122;SDS011;37162;41.724;13.346;2023-09-07T10:52:55;9.13;;;2.75;;
51122;SDS011;37162;41.724;13.346;2023-09-07T10:55:20;3.03;;;2.72;;
51122;SDS011;37162;41.724;13.346;2023-09-07T10:57:46;6.10;;;2.80;;
51122;SDS011;37162;41.724;13.346;2023-09-07T11:00:13;3.42;;;3.03;;
51122;SDS011;37162;41.724;13.346;2023-09-07T11:02:39;3.33;;;2.83;;
51122;SDS011;37162;41.724;13.346;2023-09-07T11:05:08;3.00;;;2.72;;
51122;SDS011;37162;41.724;13.346;2023-09-07T11:07:35;2.95;;;2.70;;
51122;SDS011;37162;41.724;13.346;2023-09-07T11:10:02;4.15;;;3.22;;
51122;SDS011;37162;41.724;13.346;2023-09-07T11:12:35;5.35;;;3.00;;
51122;SDS011;37162;41.724;13.346;2023-09-07T11:15:02;3.53;;;2.63;;
51122;SDS011;37162;41.724;13.346;2023-09-07T11:17:29;3.30;;;3.00;;
51122;SDS011;37162;41.724;13.346;2023-09-07T11:19:55;3.17;;;2.88;;
51122;SDS011;37162;41.724;13.346;2023-09-07T11:22:20;3.45;;;2.83;;
51122;SDS011;37162;41.724;13.346;2023-09-07T11:24:46;3.55;;;2.83;;
51122;SDS011;37162;41.724;13.346;2023-09-07T11:27:12;4.20;;;2.70;;
51122;SDS011;37162;41.724;13.346;2023-09-07T11:29:37;3.92;;;2.65;;
51122;SDS011;37162;41.724;13.346;2023-09-07T11:32:10;3.05;;;2.65;;
51122;SDS011;37162;41.724;13.346;2023-09-07T11:34:51;6.55;;;3.08;;
51122;SDS011;37162;41.724;13.346;2023-09-07T11:37:17;2.45;;;2.25;;
51122;SDS011;37162;41.724;13.346;2023-09-07T11:39:47;2.72;;;2.53;;
51122;SDS011;37162;41.724;13.346;2023-09-07T11:42:13;2.90;;;2.60;;
51122;SDS011;37162;41.724;13.346;2023-09-07T11:44:38;6.40;;;2.65;;
51122;SDS011;37162;41.724;13.346;2023-09-07T11:47:04;5.93;;;3.28;;
51122;SDS011;37162;41.724;13.346;2023-09-07T11:49:29;6.97;;;2.78;;
51122;SDS011;37162;41.724;13.346;2023-09-07T11:51:56;3.28;;;2.47;;
51122;SDS011;37162;41.724;13.346;2023-09-07T11:54:22;4.78;;;2.80;;
51122;SDS011;37162;41.724;13.346;2023-09-07T11:56:48;4.15;;;3.08;;
51122;SDS011;37162;41.724;13.346;2023-09-07T11:59:13;3.17;;;2.88;;
51122;SDS011;37162;41.724;13.346;2023-09-07T12:01:39;5.97;;;3.05;;
51122;SDS011;37162;41.724;13.346;2023-09-07T12:04:07;4.55;;;2.47;;
51122;SDS011;37162;41.724;13.346;2023-09-07T12:06:32;3.33;;;2.85;;
51122;SDS011;37162;41.724;13.346;2023-09-07T12:08:58;3.17;;;2.90;;
51122;SDS011;37162;41.724;13.346;2023-09-07T12:11:36;3.10;;;2.67;;
51122;SDS011;37162;41.724;13.346;2023-09-07T12:14:02;5.22;;;2.95;;
51122;SDS011;37162;41.724;13.346;2023-09-07T12:16:29;3.05;;;2.67;;
51122;SDS011;37162;41.724;13.346;2023-09-07T12:18:55;2.83;;;2.63;;
51122;SDS011;37162;41.724;13.346;2023-09-07T12:21:21;3.90;;;2.85;;
51122;SDS011;37162;41.724;13.346;2023-09-07T12:23:46;3.17;;;2.88;;
51122;SDS011;37162;41.724;13.346;2023-09-07T12:26:12;2.88;;;2.50;;
51122;SDS011;37162;41.724;13.346;2023-09-07T12:28:39;3.38;;;3.08;;
51122;SDS011;37162;41.724;13.346;2023-09-07T12:31:05;2.72;;;2.35;;
51122;SDS011;37162;41.724;13.346;2023-09-07T12:33:30;3.25;;;2.70;;
51122;SDS011;37162;41.724;13.346;2023-09-07T12:35:56;3.22;;;2.92;;
51122;SDS011;37162;41.724;13.346;2023-09-07T12:38:22;5.88;;;2.67;;
51122;SDS011;37162;41.724;13.346;2023-09-07T12:40:52;3.80;;;2.65;;
51122;SDS011;37162;41.724;13.346;2023-09-07T12:43:18;4.05;;;2.33;;
51122;SDS011;37162;41.724;13.346;2023-09-07T12:45:43;5.95;;;2.80;;
51122;SDS011;37162;41.724;13.346;2023-09-07T12:48:09;3.47;;;2.60;;
51122;SDS011;37162;41.724;13.346;2023-09-07T12:50:34;3.08;;;2.78;;
51122;SDS011;37162;41.724;13.346;2023-09-07T12:53:00;2.55;;;2.35;;
51122;SDS011;37162;41.724;13.346;2023-09-07T12:55:25;2.47;;;2.25;;
51122;SDS011;37162;41.724;13.346;2023-09-07T12:57:51;5.50;;;2.67;;
51122;SDS011;37162;41.724;13.346;2023-09-07T13:00:16;3.70;;;2.60;;
51122;SDS011;37162;41.724;13.346;2023-09-07T13:02:42;3.20;;;2.65;;
51122;SDS011;37162;41.724;13.346;2023-09-07T13:05:07;2.88;;;2.60;;
51122;SDS011;37162;41.724;13.346;2023-09-07T13:07:33;3.45;;;2.65;;
51122;SDS011;37162;41.724;13.346;2023-09-07T13:10:00;5.50;;;2.92;;
51122;SDS011;37162;41.724;13.346;2023-09-07T13:12:30;5.10;;;3.30;;
51122;SDS011;37162;41.724;13.346;2023-09-07T13:14:57;6.18;;;3.15;;
51122;SDS011;37162;41.724;13.346;2023-09-07T13:17:22;2.40;;;2.20;;
51122;SDS011;37162;41.724;13.346;2023-09-07T13:19:48;2.95;;;2.47;;
51122;SDS011;37162;41.724;13.346;2023-09-07T13:22:13;3.35;;;2.47;;
51122;SDS011;37162;41.724;13.346;2023-09-07T13:24:39;3.08;;;2.25;;
51122;SDS011;37162;41.724;13.346;2023-09-07T13:27:04;3.35;;;2.35;;
51122;SDS011;37162;41.724;13.346;2023-09-07T13:29:30;4.25;;;2.63;;
51122;SDS011;37162;41.724;13.346;2023-09-07T13:31:59;2.85;;;2.40;;
51122;SDS011;37162;41.724;13.346;2023-09-07T13:34:25;2.75;;;2.30;;
51122;SDS011;37162;41.724;13.346;2023-09-07T13:36:51;3.10;;;2.65;;
51122;SDS011;37162;41.724;13.346;2023-09-07T13:39:16;5.30;;;2.58;;
51122;SDS011;37162;41.724;13.346;2023-09-07T13:41:42;3.28;;;2.58;;
51122;SDS011;37162;41.724;13.346;2023-09-07T13:44:08;3.28;;;2.55;;
51122;SDS011;37162;41.724;13.346;2023-09-07T13:46:33;3.83;;;2.72;;
51122;SDS011;37162;41.724;13.346;2023-09-07T13:48:59;5.05;;;2.90;;
51122;SDS011;37162;41.724;13.346;2023-09-07T13:51:25;8.38;;;2.75;;
51122;SDS011;37162;41.724;13.346;2023-09-07T13:53:51;3.50;;;2.60;;
51122;SDS011;37162;41.724;13.346;2023-09-07T13:56:17;2.85;;;2.38;;
51122;SDS011;37162;41.724;13.346;2023-09-07T13:58:43;3.28;;;2.70;;
51122;SDS011;37162;41.724;13.346;2023-09-07T14:01:08;2.50;;;2.30;;
51122;SDS011;37162;41.724;13.346;2023-09-07T14:03:34;2.80;;;2.45;;
51122;SDS011;37162;41.724;13.346;2023-09-07T14:06:00;3.63;;;2.28;;
51122;SDS011;37162;41.724;13.346;2023-09-07T14:08:25;4.68;;;2.58;;
51122;SDS011;37162;41.724;13.346;2023-09-07T14:10:51;7.93;;;3.53;;
51122;SDS011;37162;41.724;13.346;2023-09-07T14:13:17;3.78;;;2.85;;
51122;SDS011;37162;41.724;13.346;2023-09-07T14:15:44;3.95;;;2.75;;
51122;SDS011;37162;41.724;13.346;2023-09-07T14:18:10;2.50;;;2.30;;
51122;SDS011;37162;41.724;13.346;2023-09-07T14:20:35;2.85;;;2.50;;
51122;SDS011;37162;41.724;13.346;2023-09-07T14:23:01;3.05;;;2.75;;
51122;SDS011;37162;41.724;13.346;2023-09-07T14:25:27;2.60;;;2.30;;
51122;SDS011;37162;41.724;13.346;2023-09-07T14:27:52;2.65;;;2.45;;